Time;durP1;ratioP1;P1;durP2;ratioP2;P2;SDS_P1;SDS_P2;PMS_P1;PMS_P2;Temp;Humidity;BMP_temperature;BMP_pressure;BME280_temperature;BME280_humidity;BME280_pressure;Samples;Min_cycle;Max_cycle;Signal;HPM_P1;HPM_P2
2023/05/19 00:01:12;;;;;;;9.25;4.70;;;;;;;;;;5074248;28;20032;-74
2023/05/19 00:03:39;;;;;;;8.98;4.43;;;;;;;;;;5086993;28;20028;-74
2023/05/19 00:06:07;;;;;;;10.02;4.45;;;;;;;;;;5072515;28;20147;-74
2023/05/19 00:08:33;;;;;;;8.10;4.15;;;;;;;;;;5072630;28;20016;-74
2023/05/19 00:11:00;;;;;;;10.60;4.65;;;;;;;;;;5072402;28;20021;-74
2023/05/19 00:13:26;;;;;;;9.05;3.70;;;;;;;;;;5078545;28;20451;-74
2023/05/19 00:15:53;;;;;;;9.00;4.45;;;;;;;;;;5092468;28;20035;-74
2023/05/19 00:18:19;;;;;;;10.00;4.20;;;;;;;;;;5092807;28;20354;-74
2023/05/19 00:20:45;;;;;;;12.32;5.50;;;;;;;;;;5091980;28;20540;-75
2023/05/19 00:23:11;;;;;;;11.57;5.10;;;;;;;;;;5092173;28;20031;-74
2023/05/19 00:25:37;;;;;;;9.95;4.55;;;;;;;;;;5079315;28;20024;-74
2023/05/19 00:28:03;;;;;;;9.25;4.80;;;;;;;;;;5072216;28;20491;-74
2023/05/19 00:30:30;;;;;;;10.50;4.63;;;;;;;;;;5054339;28;20463;-74
2023/05/19 00:32:56;;;;;;;10.63;4.95;;;;;;;;;;5072104;28;20024;-74
2023/05/19 00:35:23;;;;;;;10.18;4.68;;;;;;;;;;5072130;28;20368;-74
2023/05/19 00:37:49;;;;;;;12.45;4.50;;;;;;;;;;5072212;28;20108;-74
2023/05/19 00:40:15;;;;;;;10.57;4.88;;;;;;;;;;5072383;28;20040;-74
2023/05/19 00:42:41;;;;;;;12.15;4.72;;;;;;;;;;5091756;28;20052;-74
2023/05/19 00:45:07;;;;;;;13.43;4.70;;;;;;;;;;5078433;28;20548;-74
2023/05/19 00:47:33;;;;;;;10.27;4.88;;;;;;;;;;5072289;28;20354;-74
2023/05/19 00:49:59;;;;;;;10.15;4.28;;;;;;;;;;5072055;28;20024;-74
2023/05/19 00:52:26;;;;;;;11.05;4.15;;;;;;;;;;5073707;28;20356;-74
2023/05/19 00:54:53;;;;;;;12.45;5.15;;;;;;;;;;5092156;28;20089;-74
2023/05/19 00:57:20;;;;;;;11.95;4.97;;;;;;;;;;5092120;28;20031;-74
2023/05/19 00:59:46;;;;;;;10.75;4.70;;;;;;;;;;5092124;28;20031;-74
2023/05/19 01:02:13;;;;;;;9.90;4.57;;;;;;;;;;5092216;28;20103;-74
2023/05/19 01:04:40;;;;;;;12.98;4.53;;;;;;;;;;5092659;28;20031;-74
2023/05/19 01:07:06;;;;;;;12.73;5.20;;;;;;;;;;5092001;28;20019;-74
2023/05/19 01:09:32;;;;;;;10.88;4.97;;;;;;;;;;5091969;28;20024;-74
2023/05/19 01:11:59;;;;;;;13.10;4.95;;;;;;;;;;5092079;28;20021;-74
2023/05/19 01:14:28;;;;;;;14.65;5.03;;;;;;;;;;5091829;28;20027;-74
2023/05/19 01:16:57;;;;;;;13.63;5.15;;;;;;;;;;5083600;28;20039;-74
2023/05/19 01:19:24;;;;;;;10.63;4.10;;;;;;;;;;5071737;28;20460;-74
2023/05/19 01:21:50;;;;;;;12.00;5.00;;;;;;;;;;5079598;28;20052;-74
2023/05/19 01:24:22;;;;;;;11.25;4.75;;;;;;;;;;5091645;28;20409;-74
2023/05/19 01:27:05;;;;;;;10.82;4.93;;;;;;;;;;5091850;28;20020;-74
2023/05/19 01:29:31;;;;;;;9.05;4.88;;;;;;;;;;5091697;28;20055;-74
2023/05/19 01:31:59;;;;;;;14.27;4.82;;;;;;;;;;5091808;28;20466;-74
2023/05/19 01:34:26;;;;;;;8.73;4.63;;;;;;;;;;5095395;28;20107;-74
2023/05/19 01:36:53;;;;;;;16.60;4.85;;;;;;;;;;5095625;28;20016;-74
2023/05/19 01:39:19;;;;;;;10.02;4.57;;;;;;;;;;5095525;28;20020;-74
2023/05/19 01:41:46;;;;;;;10.43;4.35;;;;;;;;;;5095325;28;20035;-74
2023/05/19 01:44:12;;;;;;;11.35;5.00;;;;;;;;;;5095245;28;20028;-74
2023/05/19 01:46:39;;;;;;;12.48;4.47;;;;;;;;;;5095306;28;20027;-74
2023/05/19 01:49:05;;;;;;;13.32;4.38;;;;;;;;;;5077083;28;20127;-74
2023/05/19 01:51:31;;;;;;;8.13;3.83;;;;;;;;;;5095051;28;20039;-74
2023/05/19 01:53:57;;;;;;;7.35;3.88;;;;;;;;;;5095021;28;20024;-74
2023/05/19 01:56:38;;;;;;;10.35;4.80;;;;;;;;;;5095030;28;20395;-74
2023/05/19 01:59:21;;;;;;;11.40;4.72;;;;;;;;;;5095451;28;20024;-74
2023/05/19 02:01:51;;;;;;;12.55;4.72;;;;;;;;;;5094905;28;20035;-74
2023/05/19 02:04:17;;;;;;;;;;;;;;;;;;5095472;28;20012;-74
2023/05/19 02:07:02;;;;;;;11.43;4.40;;;;;;;;;;5094977;28;19904;-75
2023/05/19 02:09:40;;;;;;;7.93;3.47;;;;;;;;;;5094728;28;20054;-74
2023/05/19 02:12:15;;;;;;;9.10;4.25;;;;;;;;;;5094934;28;20058;-74
2023/05/19 02:14:47;;;;;;;10.40;4.53;;;;;;;;;;5094815;28;20024;-74
2023/05/19 02:17:14;;;;;;;15.40;4.50;;;;;;;;;;5094647;28;20065;-74
2023/05/19 02:19:42;;;;;;;7.60;4.10;;;;;;;;;;5094695;28;20035;-74
2023/05/19 02:22:08;;;;;;;8.77;3.75;;;;;;;;;;5093057;28;20059;-74
2023/05/19 02:24:36;;;;;;;8.52;4.15;;;;;;;;;;5094589;28;20024;-74
2023/05/19 02:27:02;;;;;;;9.95;4.00;;;;;;;;;;5094592;28;20074;-74
2023/05/19 02:29:28;;;;;;;10.85;4.10;;;;;;;;;;5094459;28;20035;-74
2023/05/19 02:31:54;;;;;;;12.07;4.00;;;;;;;;;;5076257;28;20020;-74
2023/05/19 02:34:20;;;;;;;13.80;5.20;;;;;;;;;;5094332;28;20024;-74
2023/05/19 02:36:48;;;;;;;11.50;3.88;;;;;;;;;;5094650;28;20070;-74
2023/05/19 02:39:15;;;;;;;12.65;4.75;;;;;;;;;;5094573;28;20016;-74
2023/05/19 02:41:41;;;;;;;7.95;4.05;;;;;;;;;;5094098;28;20114;-74
2023/05/19 02:44:07;;;;;;;11.77;4.30;;;;;;;;;;5093509;28;20108;-74
2023/05/19 02:46:33;;;;;;;10.85;3.35;;;;;;;;;;5094125;28;20424;-74
2023/05/19 02:48:59;;;;;;;9.00;4.28;;;;;;;;;;5093782;28;20405;-75
2023/05/19 02:51:25;;;;;;;9.85;4.00;;;;;;;;;;5094089;28;20031;-74
2023/05/19 02:53:51;;;;;;;9.43;3.88;;;;;;;;;;5093929;28;20032;-75
2023/05/19 02:56:17;;;;;;;7.47;3.30;;;;;;;;;;5094053;28;20025;-75
2023/05/19 02:58:43;;;;;;;9.57;4.05;;;;;;;;;;5093893;28;20020;-75
2023/05/19 03:01:09;;;;;;;7.25;3.35;;;;;;;;;;5093849;28;20111;-75
2023/05/19 03:03:36;;;;;;;7.30;3.92;;;;;;;;;;5093815;28;20023;-75
2023/05/19 03:06:01;;;;;;;11.98;4.25;;;;;;;;;;5093996;28;20027;-75
2023/05/19 03:08:28;;;;;;;10.73;4.03;;;;;;;;;;5093758;28;20020;-75
2023/05/19 03:10:54;;;;;;;9.65;3.75;;;;;;;;;;5073398;28;20044;-75
2023/05/19 03:13:20;;;;;;;8.45;3.60;;;;;;;;;;5073256;28;20025;-75
2023/05/19 03:15:46;;;;;;;9.63;3.80;;;;;;;;;;5073259;28;20475;-75
2023/05/19 03:18:12;;;;;;;8.68;3.72;;;;;;;;;;5073430;28;20024;-74
2023/05/19 03:20:38;;;;;;;7.70;3.15;;;;;;;;;;5073082;28;20367;-74
2023/05/19 03:23:05;;;;;;;7.00;3.55;;;;;;;;;;5077958;28;20391;-74
2023/05/19 03:25:31;;;;;;;10.45;3.58;;;;;;;;;;5093595;28;20033;-75
2023/05/19 03:27:57;;;;;;;10.07;3.42;;;;;;;;;;5093311;28;20026;-75
2023/05/19 03:30:23;;;;;;;12.43;4.20;;;;;;;;;;5093022;28;20028;-75
2023/05/19 03:32:50;;;;;;;8.88;3.55;;;;;;;;;;5093100;28;20031;-75
2023/05/19 03:35:16;;;;;;;9.02;3.70;;;;;;;;;;5093460;28;20457;-75
2023/05/19 03:37:42;;;;;;;11.35;3.80;;;;;;;;;;5093070;28;20027;-75
2023/05/19 03:40:09;;;;;;;5.88;3.30;;;;;;;;;;5092991;28;20068;-75
2023/05/19 03:42:35;;;;;;;15.52;3.83;;;;;;;;;;5093233;28;20103;-75
2023/05/19 03:45:01;;;;;;;7.40;3.38;;;;;;;;;;5093073;28;20058;-75
2023/05/19 03:47:27;;;;;;;13.23;3.78;;;;;;;;;;5085569;28;20029;-75
2023/05/19 03:49:53;;;;;;;9.25;3.50;;;;;;;;;;5072701;28;20035;-74
2023/05/19 03:52:19;;;;;;;8.95;3.33;;;;;;;;;;5079627;28;20066;-75
2023/05/19 03:54:45;;;;;;;7.85;3.78;;;;;;;;;;5093056;28;20051;-75
2023/05/19 03:57:11;;;;;;;6.60;3.40;;;;;;;;;;5091809;28;20051;-74
2023/05/19 03:59:40;;;;;;;11.93;5.03;;;;;;;;;;5079372;28;20063;-75
2023/05/19 04:02:06;;;;;;;10.80;3.95;;;;;;;;;;5072728;28;20028;-75
2023/05/19 04:04:32;;;;;;;10.95;3.97;;;;;;;;;;5072441;28;20484;-75
2023/05/19 04:06:58;;;;;;;8.70;3.58;;;;;;;;;;5054449;28;20090;-74
2023/05/19 04:09:24;;;;;;;7.57;3.47;;;;;;;;;;5064635;28;20048;-75
2023/05/19 04:11:50;;;;;;;7.18;3.38;;;;;;;;;;5072714;28;20028;-74
2023/05/19 04:14:16;;;;;;;10.23;3.58;;;;;;;;;;5086073;28;20028;-75
2023/05/19 04:16:42;;;;;;;9.15;3.60;;;;;;;;;;5092523;28;20459;-75
2023/05/19 04:19:08;;;;;;;8.18;3.83;;;;;;;;;;5092519;28;20025;-75
2023/05/19 04:21:34;;;;;;;9.20;3.80;;;;;;;;;;5092009;28;20674;-75
2023/05/19 04:23:59;;;;;;;10.25;3.70;;;;;;;;;;5092514;28;20020;-75
2023/05/19 04:26:29;;;;;;;7.30;3.15;;;;;;;;;;5092467;28;20028;-75
2023/05/19 04:28:55;;;;;;;12.15;3.60;;;;;;;;;;5092654;28;20353;-75
2023/05/19 04:31:21;;;;;;;6.40;2.97;;;;;;;;;;5092259;28;20036;-75
2023/05/19 04:33:48;;;;;;;10.50;4.20;;;;;;;;;;5092699;28;20031;-75
2023/05/19 04:36:16;;;;;;;11.40;4.30;;;;;;;;;;5092660;28;20524;-75
2023/05/19 04:38:42;;;;;;;11.05;3.70;;;;;;;;;;5092916;28;20058;-75
2023/05/19 04:41:08;;;;;;;9.93;4.18;;;;;;;;;;5092257;28;20623;-75
2023/05/19 04:43:35;;;;;;;10.95;3.83;;;;;;;;;;5092250;28;20035;-75
2023/05/19 04:46:04;;;;;;;8.68;4.20;;;;;;;;;;5092508;28;20024;-75
2023/05/19 04:48:30;;;;;;;10.85;3.65;;;;;;;;;;5092556;28;20429;-75
2023/05/19 04:50:56;;;;;;;10.32;4.50;;;;;;;;;;5092133;28;20047;-75
2023/05/19 04:53:24;;;;;;;8.57;4.00;;;;;;;;;;5092061;28;20158;-75
2023/05/19 04:55:50;;;;;;;10.90;3.83;;;;;;;;;;5092503;28;20023;-75
2023/05/19 04:58:17;;;;;;;9.27;3.85;;;;;;;;;;5092040;28;20027;-75
2023/05/19 05:00:44;;;;;;;7.78;3.78;;;;;;;;;;5092224;28;20459;-75
2023/05/19 05:03:11;;;;;;;8.50;3.78;;;;;;;;;;5092129;28;20158;-75
2023/05/19 05:05:37;;;;;;;6.47;3.25;;;;;;;;;;5092243;28;20043;-75
2023/05/19 05:08:03;;;;;;;7.15;2.88;;;;;;;;;;5093540;28;20099;-75
2023/05/19 05:10:29;;;;;;;5.57;3.05;;;;;;;;;;5096044;28;20036;-75
2023/05/19 05:12:55;;;;;;;6.45;3.08;;;;;;;;;;5095902;28;20024;-75
2023/05/19 05:15:23;;;;;;;7.75;3.72;;;;;;;;;;5096075;28;20028;-75
2023/05/19 05:17:49;;;;;;;7.32;3.30;;;;;;;;;;5093222;28;20027;-75
2023/05/19 05:20:15;;;;;;;6.43;2.83;;;;;;;;;;5094728;28;20028;-76
2023/05/19 05:22:42;;;;;;;9.70;3.10;;;;;;;;;;5094659;28;20109;-77
2023/05/19 05:25:08;;;;;;;5.22;2.85;;;;;;;;;;5095839;28;20028;-77
2023/05/19 05:27:35;;;;;;;13.25;4.50;;;;;;;;;;5095672;28;20107;-76
2023/05/19 05:30:01;;;;;;;6.80;3.10;;;;;;;;;;5095916;28;20132;-75
2023/05/19 05:32:27;;;;;;;5.25;3.05;;;;;;;;;;5095569;28;20103;-74
2023/05/19 05:34:53;;;;;;;8.35;3.20;;;;;;;;;;5095521;28;20417;-74
2023/05/19 05:37:19;;;;;;;9.52;3.30;;;;;;;;;;5095474;28;20059;-75
2023/05/19 05:39:45;;;;;;;6.70;2.92;;;;;;;;;;5095332;28;20103;-74
2023/05/19 05:42:11;;;;;;;7.07;3.05;;;;;;;;;;5095265;28;20119;-75
2023/05/19 05:44:37;;;;;;;10.32;3.50;;;;;;;;;;5095104;28;20504;-75
2023/05/19 05:47:03;;;;;;;6.22;3.08;;;;;;;;;;5095361;28;20463;-75
2023/05/19 05:49:29;;;;;;;7.25;3.50;;;;;;;;;;5095548;28;20028;-75
2023/05/19 05:51:55;;;;;;;7.60;3.28;;;;;;;;;;5091949;28;20020;-75
2023/05/19 05:54:23;;;;;;;12.25;3.53;;;;;;;;;;5085458;28;20475;-75
2023/05/19 05:56:50;;;;;;;4.80;2.75;;;;;;;;;;5095323;28;20069;-75
2023/05/19 05:59:16;;;;;;;8.43;3.17;;;;;;;;;;5095135;28;20055;-75
2023/05/19 06:01:42;;;;;;;7.13;3.22;;;;;;;;;;5094888;28;20024;-75
2023/05/19 06:04:09;;;;;;;6.57;2.65;;;;;;;;;;5094909;28;20028;-75
2023/05/19 06:06:36;;;;;;;8.63;3.40;;;;;;;;;;5094719;28;20020;-75
2023/05/19 06:09:02;;;;;;;6.15;3.28;;;;;;;;;;5095295;28;20184;-75
2023/05/19 06:11:28;;;;;;;12.13;3.78;;;;;;;;;;5076694;28;20390;-75
2023/05/19 06:13:54;;;;;;;6.72;3.25;;;;;;;;;;5095157;28;20027;-75
2023/05/19 06:16:20;;;;;;;9.35;3.47;;;;;;;;;;5094887;28;20141;-75
2023/05/19 06:18:46;;;;;;;5.50;3.22;;;;;;;;;;5094251;28;20442;-75
2023/05/19 06:21:12;;;;;;;8.15;3.25;;;;;;;;;;5092931;28;20039;-76
2023/05/19 06:23:41;;;;;;;9.45;3.28;;;;;;;;;;5094850;28;20035;-75
2023/05/19 06:26:14;;;;;;;7.27;3.00;;;;;;;;;;5073175;28;20099;-75
2023/05/19 06:28:40;;;;;;;9.57;3.50;;;;;;;;;;5086551;28;20024;-75
2023/05/19 06:31:06;;;;;;;7.93;3.30;;;;;;;;;;5094751;28;20028;-76
2023/05/19 06:33:32;;;;;;;9.18;3.05;;;;;;;;;;5094609;28;20050;-76
2023/05/19 06:35:58;;;;;;;7.85;3.10;;;;;;;;;;5094406;28;20378;-76
2023/05/19 06:38:25;;;;;;;8.95;3.33;;;;;;;;;;5094644;28;20032;-76
2023/05/19 06:40:50;;;;;;;5.97;2.95;;;;;;;;;;5087028;28;20029;-76
2023/05/19 06:43:17;;;;;;;8.07;3.42;;;;;;;;;;5074231;28;20036;-76
2023/05/19 06:45:43;;;;;;;9.95;3.45;;;;;;;;;;5074305;28;20033;-76
2023/05/19 06:48:09;;;;;;;7.90;2.80;;;;;;;;;;5074057;28;20035;-76
2023/05/19 06:50:34;;;;;;;9.55;3.42;;;;;;;;;;5074201;28;20440;-76
2023/05/19 06:53:00;;;;;;;6.68;2.90;;;;;;;;;;5073936;28;20020;-76
2023/05/19 06:55:26;;;;;;;6.85;3.33;;;;;;;;;;5073798;28;20025;-76
2023/05/19 06:57:52;;;;;;;7.10;3.55;;;;;;;;;;5073781;28;20029;-77
2023/05/19 07:00:19;;;;;;;8.60;3.20;;;;;;;;;;5078441;28;20075;-76
2023/05/19 07:02:45;;;;;;;5.45;3.08;;;;;;;;;;5094242;28;20032;-77
2023/05/19 07:05:11;;;;;;;4.95;3.08;;;;;;;;;;5093734;28;20027;-76
2023/05/19 07:07:37;;;;;;;6.18;3.15;;;;;;;;;;5097713;28;20099;-76
2023/05/19 07:10:03;;;;;;;5.28;2.95;;;;;;;;;;5114041;28;20103;-77
2023/05/19 07:12:29;;;;;;;7.43;3.00;;;;;;;;;;5095526;28;20077;-77
2023/05/19 07:14:55;;;;;;;6.50;3.53;;;;;;;;;;5114300;28;20023;-77
2023/05/19 07:17:21;;;;;;;7.90;3.30;;;;;;;;;;5112257;28;20023;-77
2023/05/19 07:19:47;;;;;;;6.07;3.30;;;;;;;;;;5093504;28;20150;-77
2023/05/19 07:22:13;;;;;;;7.60;3.50;;;;;;;;;;5092088;28;20055;-77
2023/05/19 07:24:39;;;;;;;6.45;3.28;;;;;;;;;;5093241;28;20439;-77
2023/05/19 07:27:05;;;;;;;7.30;3.13;;;;;;;;;;5093307;28;20024;-77
2023/05/19 07:29:31;;;;;;;6.22;3.05;;;;;;;;;;5093247;28;20020;-77
2023/05/19 07:31:57;;;;;;;5.97;2.80;;;;;;;;;;5093049;28;20054;-77
2023/05/19 07:34:24;;;;;;;5.63;2.95;;;;;;;;;;5093198;28;20028;-77
2023/05/19 07:36:53;;;;;;;6.03;3.25;;;;;;;;;;5093071;28;20016;-77
2023/05/19 07:39:19;;;;;;;6.78;2.42;;;;;;;;;;5093168;28;20371;-77
2023/05/19 07:41:51;;;;;;;7.50;2.67;;;;;;;;;;5093455;28;20055;-77
2023/05/19 07:44:17;;;;;;;6.18;2.60;;;;;;;;;;5094596;28;20027;-78
2023/05/19 07:46:43;;;;;;;7.13;2.75;;;;;;;;;;5094139;28;20115;-78
2023/05/19 07:49:09;;;;;;;8.85;2.70;;;;;;;;;;5080479;28;20060;-78
2023/05/19 07:51:35;;;;;;;6.28;2.38;;;;;;;;;;5087241;28;20032;-78
2023/05/19 07:54:01;;;;;;;5.47;2.72;;;;;;;;;;5101113;28;20028;-78
2023/05/19 07:56:27;;;;;;;6.25;2.50;;;;;;;;;;5114279;28;20098;-78
2023/05/19 07:58:53;;;;;;;7.13;2.25;;;;;;;;;;5106465;28;20039;-78
2023/05/19 08:01:19;;;;;;;6.03;2.67;;;;;;;;;;5075578;28;20032;-78
2023/05/19 08:03:45;;;;;;;7.93;2.95;;;;;;;;;;5090867;28;20039;-79
2023/05/19 08:06:11;;;;;;;6.90;2.83;;;;;;;;;;5094625;28;20098;-79
2023/05/19 08:08:37;;;;;;;8.50;3.40;;;;;;;;;;5067435;28;20048;-78
2023/05/19 08:11:03;;;;;;;5.28;2.60;;;;;;;;;;5094074;28;20599;-78
2023/05/19 08:13:30;;;;;;;5.45;2.55;;;;;;;;;;5091305;28;20453;-79
2023/05/19 08:15:58;;;;;;;4.05;2.40;;;;;;;;;;5089996;28;20021;-79
2023/05/19 08:18:25;;;;;;;6.50;2.55;;;;;;;;;;5088985;28;20031;-77
2023/05/19 08:20:51;;;;;;;6.15;2.30;;;;;;;;;;5064240;28;20036;-78
2023/05/19 08:23:16;;;;;;;5.82;2.45;;;;;;;;;;5087077;28;20059;-77
2023/05/19 08:25:43;;;;;;;5.40;2.53;;;;;;;;;;5079787;28;20103;-77
2023/05/19 08:28:09;;;;;;;5.70;2.33;;;;;;;;;;5081835;28;20506;-78
2023/05/19 08:30:35;;;;;;;5.72;2.67;;;;;;;;;;5081280;28;20094;-77
2023/05/19 08:33:02;;;;;;;3.92;2.40;;;;;;;;;;5073498;28;20048;-78
2023/05/19 08:35:28;;;;;;;4.35;2.50;;;;;;;;;;5074806;28;20032;-78
2023/05/19 08:37:54;;;;;;;6.82;2.70;;;;;;;;;;5076719;28;20021;-78
2023/05/19 08:40:20;;;;;;;6.90;3.15;;;;;;;;;;5089525;28;20055;-78
2023/05/19 08:42:46;;;;;;;7.10;2.50;;;;;;;;;;5101429;28;20012;-78
2023/05/19 08:45:12;;;;;;;7.25;2.53;;;;;;;;;;5118010;28;20053;-78
2023/05/19 08:47:39;;;;;;;4.13;2.35;;;;;;;;;;5097738;28;20027;-78
2023/05/19 08:50:06;;;;;;;5.50;2.80;;;;;;;;;;5097205;28;20359;-78
2023/05/19 08:52:40;;;;;;;3.20;2.30;;;;;;;;;;5096975;28;20148;-77
2023/05/19 08:55:06;;;;;;;6.65;3.15;;;;;;;;;;5096705;28;20459;-77
2023/05/19 08:57:33;;;;;;;6.30;2.30;;;;;;;;;;5096260;28;20027;-78
2023/05/19 08:59:59;;;;;;;7.05;2.70;;;;;;;;;;5096037;28;20021;-78
2023/05/19 09:02:26;;;;;;;6.10;2.70;;;;;;;;;;5096114;28;20023;-78
2023/05/19 09:04:53;;;;;;;5.13;2.47;;;;;;;;;;5096408;28;20524;-78
2023/05/19 09:07:19;;;;;;;6.55;2.58;;;;;;;;;;5096474;28;20067;-77
2023/05/19 09:09:46;;;;;;;6.05;3.05;;;;;;;;;;5096094;28;20016;-78
2023/05/19 09:12:13;;;;;;;4.63;3.03;;;;;;;;;;5096522;28;20039;-78
2023/05/19 09:14:39;;;;;;;6.72;2.70;;;;;;;;;;5096557;28;20099;-77
2023/05/19 09:17:05;;;;;;;6.28;3.15;;;;;;;;;;5096369;28;20024;-78
2023/05/19 09:19:32;;;;;;;5.72;2.85;;;;;;;;;;5095900;28;20027;-78
2023/05/19 09:22:05;;;;;;;5.68;2.88;;;;;;;;;;5094438;28;20138;-77
2023/05/19 09:24:31;;;;;;;4.78;3.17;;;;;;;;;;5095946;28;20378;-77
2023/05/19 09:26:57;;;;;;;5.50;2.85;;;;;;;;;;5086195;28;20113;-77
2023/05/19 09:29:24;;;;;;;5.82;3.22;;;;;;;;;;5095704;28;20024;-77
2023/05/19 09:31:59;;;;;;;5.32;2.90;;;;;;;;;;5095647;28;20020;-77
2023/05/19 09:34:25;;;;;;;5.22;3.08;;;;;;;;;;5076667;28;20028;-77
2023/05/19 09:36:52;;;;;;;9.85;3.33;;;;;;;;;;5095825;28;20684;-77
2023/05/19 09:39:19;;;;;;;8.63;3.28;;;;;;;;;;5095699;28;20037;-77
2023/05/19 09:41:45;;;;;;;8.73;3.13;;;;;;;;;;5095390;28;20367;-77
2023/05/19 09:44:21;;;;;;;6.45;3.45;;;;;;;;;;5095539;28;20692;-77
2023/05/19 09:46:51;;;;;;;7.00;2.95;;;;;;;;;;5095721;28;20110;-77
2023/05/19 09:49:31;;;;;;;4.85;2.95;;;;;;;;;;5095395;28;20455;-77
2023/05/19 09:51:58;;;;;;;5.00;2.92;;;;;;;;;;5095351;28;20036;-77
2023/05/19 09:54:24;;;;;;;6.32;2.88;;;;;;;;;;5094995;28;20027;-77
2023/05/19 09:56:51;;;;;;;5.00;3.00;;;;;;;;;;5095184;28;20051;-77
2023/05/19 09:59:18;;;;;;;4.60;3.20;;;;;;;;;;5095433;28;20016;-77
2023/05/19 10:01:45;;;;;;;7.68;3.50;;;;;;;;;;5094991;28;20439;-77
2023/05/19 10:04:12;;;;;;;5.78;3.63;;;;;;;;;;5095064;28;20028;-77
2023/05/19 10:06:38;;;;;;;9.55;3.83;;;;;;;;;;5095180;28;20079;-78
2023/05/19 10:09:05;;;;;;;5.68;3.78;;;;;;;;;;5095419;28;20054;-78
2023/05/19 10:11:31;;;;;;;6.15;3.47;;;;;;;;;;5077007;28;20081;-77
2023/05/19 10:13:57;;;;;;;5.43;3.63;;;;;;;;;;5095150;28;20024;-77
2023/05/19 10:16:25;;;;;;;9.10;3.70;;;;;;;;;;5076612;28;20051;-77
2023/05/19 10:18:52;;;;;;;4.43;2.60;;;;;;;;;;5095421;28;20024;-77
2023/05/19 10:21:18;;;;;;;7.65;3.85;;;;;;;;;;5081500;28;20031;-77
2023/05/19 10:23:44;;;;;;;6.88;4.05;;;;;;;;;;5093885;28;20056;-77
2023/05/19 10:26:25;;;;;;;7.40;3.22;;;;;;;;;;5094684;28;20402;-78
2023/05/19 10:28:51;;;;;;;6.40;4.15;;;;;;;;;;5095156;28;20024;-77
2023/05/19 10:31:19;;;;;;;6.93;3.67;;;;;;;;;;5094295;28;20666;-77
2023/05/19 10:33:59;;;;;;;4.78;3.05;;;;;;;;;;5076115;28;20032;-77
2023/05/19 10:36:44;;;;;;;6.53;4.07;;;;;;;;;;5074185;28;20071;-77
2023/05/19 10:39:14;;;;;;;6.45;3.92;;;;;;;;;;5056034;28;20028;-77
2023/05/19 10:41:45;;;;;;;7.25;3.75;;;;;;;;;;5074041;28;20033;-77
2023/05/19 10:44:26;;;;;;;5.85;3.10;;;;;;;;;;5075188;28;20047;-77
2023/05/19 10:46:52;;;;;;;7.22;3.90;;;;;;;;;;5075905;28;20078;-77
2023/05/19 10:49:21;;;;;;;9.05;3.83;;;;;;;;;;5096374;28;20095;-76
2023/05/19 10:51:48;;;;;;;5.43;3.40;;;;;;;;;;5093836;28;20625;-76
2023/05/19 10:54:16;;;;;;;5.57;3.85;;;;;;;;;;5093910;28;20027;-77
2023/05/19 10:56:46;;;;;;;9.18;3.97;;;;;;;;;;5094240;28;20024;-77
2023/05/19 10:59:31;;;;;;;5.30;3.00;;;;;;;;;;5094347;28;20020;-77
2023/05/19 11:02:02;;;;;;;8.02;3.50;;;;;;;;;;5094296;28;20032;-77
2023/05/19 11:04:49;;;;;;;6.40;3.58;;;;;;;;;;5075841;28;20147;-76
2023/05/19 11:07:23;;;;;;;6.43;3.13;;;;;;;;;;5093591;28;20012;-76
2023/05/19 11:09:53;;;;;;;5.60;3.40;;;;;;;;;;5094059;28;20066;-77
2023/05/19 11:12:20;;;;;;;7.35;3.30;;;;;;;;;;5094115;28;20031;-77
2023/05/19 11:14:46;;;;;;;7.05;3.53;;;;;;;;;;5093941;28;20409;-77
2023/05/19 11:17:14;;;;;;;7.57;3.50;;;;;;;;;;5094013;28;20541;-78
2023/05/19 11:19:50;;;;;;;7.03;3.35;;;;;;;;;;5083111;28;20132;-77
2023/05/19 11:22:24;;;;;;;5.35;3.25;;;;;;;;;;5072197;28;20131;-77
2023/05/19 11:24:53;;;;;;;4.90;3.40;;;;;;;;;;5087183;28;20031;-77
2023/05/19 11:27:32;;;;;;;8.00;3.13;;;;;;;;;;5087087;28;20122;-77
2023/05/19 11:29:58;;;;;;;8.38;3.30;;;;;;;;;;5093537;28;20103;-77
2023/05/19 11:32:28;;;;;;;6.53;3.63;;;;;;;;;;5093675;28;20024;-77
2023/05/19 11:34:55;;;;;;;5.07;3.50;;;;;;;;;;5093433;28;20024;-77
2023/05/19 11:37:21;;;;;;;7.22;3.65;;;;;;;;;;5093192;28;20077;-77
2023/05/19 11:39:47;;;;;;;7.85;3.05;;;;;;;;;;5093254;28;20020;-77
2023/05/19 11:42:13;;;;;;;4.10;2.80;;;;;;;;;;5093443;28;20090;-77
2023/05/19 11:44:45;;;;;;;7.43;3.45;;;;;;;;;;5093038;28;20081;-77
2023/05/19 11:47:11;;;;;;;6.10;3.30;;;;;;;;;;5075208;28;20098;-77
2023/05/19 11:49:37;;;;;;;6.53;3.22;;;;;;;;;;5093054;28;20073;-76
2023/05/19 11:52:04;;;;;;;5.35;3.00;;;;;;;;;;5093260;28;20416;-77
2023/05/19 11:54:31;;;;;;;6.60;2.78;;;;;;;;;;5092861;28;20022;-77
2023/05/19 11:57:00;;;;;;;9.30;2.83;;;;;;;;;;5074876;28;20336;-77
2023/05/19 11:59:30;;;;;;;3.70;2.10;;;;;;;;;;5093152;28;20076;-76
2023/05/19 12:01:56;;;;;;;5.60;3.03;;;;;;;;;;5092455;28;20175;-77
2023/05/19 12:04:22;;;;;;;6.22;2.65;;;;;;;;;;5092745;28;20031;-77
2023/05/19 12:06:49;;;;;;;4.47;2.50;;;;;;;;;;5076372;28;20046;-78
2023/05/19 12:09:15;;;;;;;5.35;2.88;;;;;;;;;;5090241;28;20024;-78
2023/05/19 12:11:41;;;;;;;5.00;2.47;;;;;;;;;;5086285;28;20103;-78
2023/05/19 12:14:09;;;;;;;4.78;2.67;;;;;;;;;;5073173;28;20035;-78
2023/05/19 12:16:35;;;;;;;3.53;1.92;;;;;;;;;;5077717;28;20112;-78
2023/05/19 12:19:01;;;;;;;3.97;2.20;;;;;;;;;;5085652;28;20029;-77
2023/05/19 12:21:27;;;;;;;6.30;2.78;;;;;;;;;;5089358;28;20489;-77
2023/05/19 12:23:53;;;;;;;6.30;2.90;;;;;;;;;;5091225;28;20088;-78
2023/05/19 12:26:21;;;;;;;5.50;2.58;;;;;;;;;;5093123;28;20016;-78
2023/05/19 12:28:47;;;;;;;4.03;1.73;;;;;;;;;;5093081;28;20017;-78
2023/05/19 12:31:13;;;;;;;3.60;1.80;;;;;;;;;;5092904;28;20111;-78
2023/05/19 12:33:40;;;;;;;4.82;2.10;;;;;;;;;;5093088;28;20051;-78
2023/05/19 12:36:07;;;;;;;4.20;2.20;;;;;;;;;;5093327;28;20706;-78
2023/05/19 12:38:36;;;;;;;5.97;2.83;;;;;;;;;;5093108;28;20027;-78
2023/05/19 12:41:02;;;;;;;5.03;1.92;;;;;;;;;;5093390;28;20095;-78
2023/05/19 12:43:28;;;;;;;6.05;2.50;;;;;;;;;;5092945;28;20421;-78
2023/05/19 12:45:54;;;;;;;5.50;2.53;;;;;;;;;;5075340;28;20032;-78
2023/05/19 12:48:23;;;;;;;4.25;2.00;;;;;;;;;;5093195;28;20024;-78
2023/05/19 12:50:52;;;;;;;2.90;1.90;;;;;;;;;;5072861;28;20029;-78
2023/05/19 12:53:19;;;;;;;5.15;2.65;;;;;;;;;;5072516;28;20018;-78
2023/05/19 12:55:45;;;;;;;4.65;1.70;;;;;;;;;;5072936;28;20060;-78
2023/05/19 12:58:11;;;;;;;2.85;1.17;;;;;;;;;;5092567;28;20062;-78
2023/05/19 13:00:42;;;;;;;3.45;2.20;;;;;;;;;;5093159;28;20035;-78
2023/05/19 13:03:14;;;;;;;6.57;2.60;;;;;;;;;;5092789;28;20016;-78
2023/05/19 13:05:45;;;;;;;4.80;2.13;;;;;;;;;;5093265;28;20017;-78
2023/05/19 13:08:12;;;;;;;5.57;2.28;;;;;;;;;;5092799;28;20049;-78
2023/05/19 13:10:38;;;;;;;4.43;2.13;;;;;;;;;;5092427;28;20095;-78
2023/05/19 13:13:04;;;;;;;4.55;2.33;;;;;;;;;;5092195;28;20366;-78
2023/05/19 13:15:33;;;;;;;3.20;2.08;;;;;;;;;;5074122;28;20024;-78
2023/05/19 13:17:59;;;;;;;6.40;2.80;;;;;;;;;;5092879;28;20359;-78
2023/05/19 13:20:25;;;;;;;5.80;3.17;;;;;;;;;;5092914;28;20524;-78
2023/05/19 13:22:52;;;;;;;5.75;3.00;;;;;;;;;;5091438;28;20056;-78
2023/05/19 13:25:18;;;;;;;6.55;2.70;;;;;;;;;;5072979;28;20071;-78
2023/05/19 13:27:45;;;;;;;4.57;2.58;;;;;;;;;;5089924;28;20093;-78
2023/05/19 13:30:12;;;;;;;6.38;3.03;;;;;;;;;;5095882;28;20356;-77
2023/05/19 13:32:38;;;;;;;4.30;2.50;;;;;;;;;;5079185;28;20445;-78
2023/05/19 13:35:05;;;;;;;11.75;4.03;;;;;;;;;;5096233;28;20103;-78
2023/05/19 13:37:31;;;;;;;3.10;2.40;;;;;;;;;;5083378;28;20035;-78
2023/05/19 13:39:57;;;;;;;8.82;3.22;;;;;;;;;;5097535;28;20028;-78
2023/05/19 13:42:23;;;;;;;5.32;3.45;;;;;;;;;;5079404;28;20047;-78
2023/05/19 13:44:49;;;;;;;6.85;3.58;;;;;;;;;;5092517;28;20020;-78
2023/05/19 13:47:15;;;;;;;6.93;3.33;;;;;;;;;;5076633;28;20486;-78
2023/05/19 13:49:41;;;;;;;10.50;3.90;;;;;;;;;;5075727;28;20025;-78
2023/05/19 13:52:07;;;;;;;6.95;3.05;;;;;;;;;;5088779;28;20028;-78
2023/05/19 13:54:33;;;;;;;9.90;4.22;;;;;;;;;;5096741;28;20527;-78
2023/05/19 13:57:00;;;;;;;3.03;2.72;;;;;;;;;;5079124;28;20043;-78
2023/05/19 13:59:25;;;;;;;6.20;3.65;;;;;;;;;;5096310;28;20043;-78
2023/05/19 14:01:51;;;;;;;5.00;3.20;;;;;;;;;;5079451;28;20463;-79
2023/05/19 14:04:18;;;;;;;6.88;3.35;;;;;;;;;;5076694;28;20031;-78
2023/05/19 14:06:44;;;;;;;11.10;4.00;;;;;;;;;;5079853;28;20857;-78
2023/05/19 14:09:10;;;;;;;8.85;3.83;;;;;;;;;;5096152;28;20044;-78
2023/05/19 14:11:36;;;;;;;9.40;5.18;;;;;;;;;;5096383;28;20024;-78
2023/05/19 14:14:02;;;;;;;7.18;4.07;;;;;;;;;;5077380;28;20403;-78
2023/05/19 14:16:29;;;;;;;6.18;3.67;;;;;;;;;;5095000;28;20020;-78
2023/05/19 14:18:55;;;;;;;8.55;4.60;;;;;;;;;;5095192;28;20020;-78
2023/05/19 14:21:21;;;;;;;6.80;3.80;;;;;;;;;;5094766;28;20115;-78
2023/05/19 14:23:49;;;;;;;9.27;4.13;;;;;;;;;;5093035;28;20446;-78
2023/05/19 14:26:15;;;;;;;9.32;4.68;;;;;;;;;;5090117;28;20052;-78
2023/05/19 14:28:41;;;;;;;14.32;5.18;;;;;;;;;;5068141;28;20462;-78
2023/05/19 14:31:13;;;;;;;8.05;4.20;;;;;;;;;;5095111;28;20040;-78
2023/05/19 14:33:40;;;;;;;7.10;4.00;;;;;;;;;;5082920;28;20031;-78
2023/05/19 14:36:07;;;;;;;9.23;3.83;;;;;;;;;;5086008;28;20058;-78
2023/05/19 14:38:33;;;;;;;12.13;3.33;;;;;;;;;;5094881;28;20035;-78
2023/05/19 14:40:59;;;;;;;6.93;3.88;;;;;;;;;;5094766;28;20036;-77